sensor_id;sensor_type;location;lat;lon;timestamp;P1;durP1;ratioP1;P2;durP2;ratioP2
62030;SDS011;62035;52.094;5.112;2023-05-01T00:01:42;5.82;;;2.60;;
62030;SDS011;62035;52.094;5.112;2023-05-01T00:04:09;4.35;;;2.45;;
62030;SDS011;62035;52.094;5.112;2023-05-01T00:06:37;6.15;;;2.75;;
62030;SDS011;62035;52.094;5.112;2023-05-01T00:09:05;7.75;;;2.55;;
62030;SDS011;62035;52.094;5.112;2023-05-01T00:11:33;6.40;;;2.20;;
62030;SDS011;62035;52.094;5.112;2023-05-01T00:14:02;5.78;;;2.45;;
62030;SDS011;62035;52.094;5.112;2023-05-01T00:16:31;4.95;;;2.60;;
62030;SDS011;62035;52.094;5.112;2023-05-01T00:19:00;7.00;;;2.45;;
62030;SDS011;62035;52.094;5.112;2023-05-01T00:21:28;5.97;;;2.42;;
62030;SDS011;62035;52.094;5.112;2023-05-01T00:23:56;4.95;;;2.60;;
62030;SDS011;62035;52.094;5.112;2023-05-01T00:26:24;8.50;;;2.42;;
62030;SDS011;62035;52.094;5.112;2023-05-01T00:28:55;4.60;;;2.50;;
62030;SDS011;62035;52.094;5.112;2023-05-01T00:31:23;10.68;;;2.42;;
62030;SDS011;62035;52.094;5.112;2023-05-01T00:33:52;8.75;;;2.70;;
62030;SDS011;62035;52.094;5.112;2023-05-01T00:36:20;5.40;;;2.55;;
62030;SDS011;62035;52.094;5.112;2023-05-01T00:38:47;6.50;;;2.70;;
62030;SDS011;62035;52.094;5.112;2023-05-01T00:41:15;5.97;;;2.72;;
62030;SDS011;62035;52.094;5.112;2023-05-01T00:43:43;4.75;;;2.47;;
62030;SDS011;62035;52.094;5.112;2023-05-01T00:46:10;5.32;;;2.30;;
62030;SDS011;62035;52.094;5.112;2023-05-01T00:48:38;4.38;;;2.58;;
62030;SDS011;62035;52.094;5.112;2023-05-01T00:51:07;4.00;;;2.50;;
62030;SDS011;62035;52.094;5.112;2023-05-01T00:53:35;5.05;;;2.40;;
62030;SDS011;62035;52.094;5.112;2023-05-01T00:56:04;4.63;;;2.42;;
62030;SDS011;62035;52.094;5.112;2023-05-01T00:58:33;5.40;;;2.63;;
62030;SDS011;62035;52.094;5.112;2023-05-01T01:01:01;5.63;;;2.60;;
62030;SDS011;62035;52.094;5.112;2023-05-01T01:03:29;9.43;;;2.85;;
62030;SDS011;62035;52.094;5.112;2023-05-01T01:05:59;6.72;;;2.67;;
62030;SDS011;62035;52.094;5.112;2023-05-01T01:08:41;6.07;;;2.50;;
62030;SDS011;62035;52.094;5.112;2023-05-01T01:11:23;4.50;;;2.15;;
62030;SDS011;62035;52.094;5.112;2023-05-01T01:14:06;6.10;;;2.80;;
62030;SDS011;62035;52.094;5.112;2023-05-01T01:16:44;5.85;;;2.58;;
62030;SDS011;62035;52.094;5.112;2023-05-01T01:19:26;8.07;;;2.38;;
62030;SDS011;62035;52.094;5.112;2023-05-01T01:22:32;4.22;;;2.38;;
62030;SDS011;62035;52.094;5.112;2023-05-01T01:25:15;4.90;;;2.63;;
62030;SDS011;62035;52.094;5.112;2023-05-01T01:31:29;5.90;;;2.55;;
62030;SDS011;62035;52.094;5.112;2023-05-01T01:34:12;4.53;;;2.50;;
62030;SDS011;62035;52.094;5.112;2023-05-01T01:36:46;5.40;;;2.85;;
62030;SDS011;62035;52.094;5.112;2023-05-01T01:39:23;6.55;;;2.50;;
62030;SDS011;62035;52.094;5.112;2023-05-01T01:41:58;7.95;;;2.75;;
62030;SDS011;62035;52.094;5.112;2023-05-01T01:44:28;6.13;;;2.80;;
62030;SDS011;62035;52.094;5.112;2023-05-01T01:47:01;7.05;;;2.45;;
62030;SDS011;62035;52.094;5.112;2023-05-01T01:49:36;5.10;;;2.30;;
62030;SDS011;62035;52.094;5.112;2023-05-01T01:52:11;6.57;;;2.17;;
62030;SDS011;62035;52.094;5.112;2023-05-01T01:54:43;6.25;;;2.45;;
62030;SDS011;62035;52.094;5.112;2023-05-01T01:57:17;6.00;;;2.33;;
62030;SDS011;62035;52.094;5.112;2023-05-01T01:59:48;5.57;;;2.60;;
62030;SDS011;62035;52.094;5.112;2023-05-01T02:02:18;6.43;;;2.33;;
62030;SDS011;62035;52.094;5.112;2023-05-01T02:04:50;5.18;;;2.42;;
62030;SDS011;62035;52.094;5.112;2023-05-01T02:07:21;6.28;;;2.40;;
62030;SDS011;62035;52.094;5.112;2023-05-01T02:09:50;5.15;;;2.40;;
62030;SDS011;62035;52.094;5.112;2023-05-01T02:12:20;7.88;;;2.72;;
62030;SDS011;62035;52.094;5.112;2023-05-01T02:14:51;4.43;;;2.37;;
62030;SDS011;62035;52.094;5.112;2023-05-01T02:17:20;6.47;;;2.50;;
62030;SDS011;62035;52.094;5.112;2023-05-01T02:19:50;5.72;;;2.55;;
62030;SDS011;62035;52.094;5.112;2023-05-01T02:22:20;8.27;;;2.40;;
62030;SDS011;62035;52.094;5.112;2023-05-01T02:24:48;4.50;;;2.55;;
62030;SDS011;62035;52.094;5.112;2023-05-01T02:27:19;8.00;;;2.42;;
62030;SDS011;62035;52.094;5.112;2023-05-01T02:29:50;8.88;;;2.90;;
62030;SDS011;62035;52.094;5.112;2023-05-01T02:32:18;5.47;;;2.50;;
62030;SDS011;62035;52.094;5.112;2023-05-01T02:34:45;5.43;;;2.63;;
62030;SDS011;62035;52.094;5.112;2023-05-01T02:37:14;7.45;;;2.90;;
62030;SDS011;62035;52.094;5.112;2023-05-01T02:39:42;6.25;;;2.50;;
62030;SDS011;62035;52.094;5.112;2023-05-01T02:42:10;6.40;;;2.30;;
62030;SDS011;62035;52.094;5.112;2023-05-01T02:44:42;9.65;;;2.55;;
62030;SDS011;62035;52.094;5.112;2023-05-01T02:47:18;6.72;;;2.47;;
62030;SDS011;62035;52.094;5.112;2023-05-01T02:52:20;10.02;;;2.47;;
62030;SDS011;62035;52.094;5.112;2023-05-01T02:54:48;8.75;;;3.00;;
62030;SDS011;62035;52.094;5.112;2023-05-01T02:57:17;6.03;;;2.90;;
62030;SDS011;62035;52.094;5.112;2023-05-01T02:59:45;10.18;;;2.95;;
62030;SDS011;62035;52.094;5.112;2023-05-01T03:02:13;5.90;;;2.70;;
62030;SDS011;62035;52.094;5.112;2023-05-01T03:04:41;7.57;;;2.90;;
62030;SDS011;62035;52.094;5.112;2023-05-01T03:07:09;6.35;;;2.83;;
62030;SDS011;62035;52.094;5.112;2023-05-01T03:09:38;5.57;;;2.67;;
62030;SDS011;62035;52.094;5.112;2023-05-01T03:12:06;6.03;;;2.63;;
62030;SDS011;62035;52.094;5.112;2023-05-01T03:14:34;3.85;;;2.20;;
62030;SDS011;62035;52.094;5.112;2023-05-01T03:17:01;5.95;;;2.70;;
62030;SDS011;62035;52.094;5.112;2023-05-01T03:19:29;5.97;;;2.55;;
62030;SDS011;62035;52.094;5.112;2023-05-01T03:21:56;6.25;;;3.05;;
62030;SDS011;62035;52.094;5.112;2023-05-01T03:24:24;6.68;;;2.60;;
62030;SDS011;62035;52.094;5.112;2023-05-01T03:26:54;5.68;;;2.75;;
62030;SDS011;62035;52.094;5.112;2023-05-01T03:29:21;7.10;;;2.47;;
62030;SDS011;62035;52.094;5.112;2023-05-01T03:31:49;4.93;;;2.60;;
62030;SDS011;62035;52.094;5.112;2023-05-01T03:34:17;8.90;;;2.80;;
62030;SDS011;62035;52.094;5.112;2023-05-01T03:36:44;11.05;;;3.00;;
62030;SDS011;62035;52.094;5.112;2023-05-01T03:39:12;8.40;;;2.40;;
62030;SDS011;62035;52.094;5.112;2023-05-01T03:41:39;7.43;;;2.85;;
62030;SDS011;62035;52.094;5.112;2023-05-01T03:44:08;4.45;;;2.17;;
62030;SDS011;62035;52.094;5.112;2023-05-01T03:46:36;11.82;;;2.90;;
62030;SDS011;62035;52.094;5.112;2023-05-01T03:49:03;5.82;;;3.35;;
62030;SDS011;62035;52.094;5.112;2023-05-01T03:51:31;7.38;;;2.40;;
62030;SDS011;62035;52.094;5.112;2023-05-01T03:53:59;4.70;;;2.63;;
62030;SDS011;62035;52.094;5.112;2023-05-01T03:56:26;6.20;;;2.55;;
62030;SDS011;62035;52.094;5.112;2023-05-01T03:59:00;8.10;;;3.10;;
62030;SDS011;62035;52.094;5.112;2023-05-01T04:01:29;5.82;;;2.55;;
62030;SDS011;62035;52.094;5.112;2023-05-01T04:03:58;6.07;;;2.70;;
62030;SDS011;62035;52.094;5.112;2023-05-01T04:06:26;7.32;;;2.78;;
62030;SDS011;62035;52.094;5.112;2023-05-01T04:08:54;6.80;;;2.90;;
62030;SDS011;62035;52.094;5.112;2023-05-01T04:11:22;4.00;;;2.30;;
62030;SDS011;62035;52.094;5.112;2023-05-01T04:13:49;7.28;;;2.75;;
62030;SDS011;62035;52.094;5.112;2023-05-01T04:16:17;7.88;;;2.90;;
62030;SDS011;62035;52.094;5.112;2023-05-01T04:18:46;7.45;;;2.92;;
62030;SDS011;62035;52.094;5.112;2023-05-01T04:21:13;4.53;;;2.60;;
62030;SDS011;62035;52.094;5.112;2023-05-01T04:23:43;7.30;;;2.55;;
62030;SDS011;62035;52.094;5.112;2023-05-01T04:26:11;6.57;;;3.15;;
62030;SDS011;62035;52.094;5.112;2023-05-01T04:28:39;7.03;;;3.03;;
62030;SDS011;62035;52.094;5.112;2023-05-01T04:31:06;8.40;;;3.03;;
62030;SDS011;62035;52.094;5.112;2023-05-01T04:33:34;5.85;;;2.70;;
62030;SDS011;62035;52.094;5.112;2023-05-01T04:36:03;6.88;;;3.42;;
62030;SDS011;62035;52.094;5.112;2023-05-01T04:38:31;7.30;;;2.60;;
62030;SDS011;62035;52.094;5.112;2023-05-01T04:41:01;6.15;;;2.75;;
62030;SDS011;62035;52.094;5.112;2023-05-01T04:43:30;5.53;;;2.80;;
62030;SDS011;62035;52.094;5.112;2023-05-01T04:45:57;5.82;;;2.67;;
62030;SDS011;62035;52.094;5.112;2023-05-01T04:48:25;7.32;;;3.05;;
62030;SDS011;62035;52.094;5.112;2023-05-01T04:50:53;7.78;;;2.63;;
62030;SDS011;62035;52.094;5.112;2023-05-01T04:53:22;9.27;;;2.95;;
62030;SDS011;62035;52.094;5.112;2023-05-01T04:55:49;5.05;;;2.60;;
62030;SDS011;62035;52.094;5.112;2023-05-01T04:58:17;8.73;;;2.97;;
62030;SDS011;62035;52.094;5.112;2023-05-01T05:00:45;7.07;;;2.67;;
62030;SDS011;62035;52.094;5.112;2023-05-01T05:03:12;7.63;;;3.17;;
62030;SDS011;62035;52.094;5.112;2023-05-01T05:05:43;8.02;;;3.03;;
62030;SDS011;62035;52.094;5.112;2023-05-01T05:08:11;9.90;;;3.60;;
62030;SDS011;62035;52.094;5.112;2023-05-01T05:10:40;8.30;;;3.30;;
62030;SDS011;62035;52.094;5.112;2023-05-01T05:13:08;6.05;;;2.88;;
62030;SDS011;62035;52.094;5.112;2023-05-01T05:15:35;4.65;;;2.80;;
62030;SDS011;62035;52.094;5.112;2023-05-01T05:18:03;9.93;;;2.88;;
62030;SDS011;62035;52.094;5.112;2023-05-01T05:20:30;6.70;;;2.88;;
62030;SDS011;62035;52.094;5.112;2023-05-01T05:22:58;7.25;;;3.20;;
62030;SDS011;62035;52.094;5.112;2023-05-01T05:25:26;6.85;;;2.70;;
62030;SDS011;62035;52.094;5.112;2023-05-01T05:27:55;6.80;;;3.35;;
62030;SDS011;62035;52.094;5.112;2023-05-01T05:30:22;6.95;;;3.17;;
62030;SDS011;62035;52.094;5.112;2023-05-01T05:32:50;9.30;;;3.20;;
62030;SDS011;62035;52.094;5.112;2023-05-01T05:35:18;6.40;;;3.13;;
62030;SDS011;62035;52.094;5.112;2023-05-01T05:37:45;7.30;;;3.10;;
62030;SDS011;62035;52.094;5.112;2023-05-01T05:40:13;6.47;;;2.75;;
62030;SDS011;62035;52.094;5.112;2023-05-01T05:42:41;9.45;;;3.03;;
62030;SDS011;62035;52.094;5.112;2023-05-01T05:45:10;8.52;;;2.85;;
62030;SDS011;62035;52.094;5.112;2023-05-01T05:47:37;5.20;;;3.00;;
62030;SDS011;62035;52.094;5.112;2023-05-01T05:50:06;9.55;;;2.88;;
62030;SDS011;62035;52.094;5.112;2023-05-01T05:52:34;4.93;;;2.60;;
62030;SDS011;62035;52.094;5.112;2023-05-01T05:55:02;8.18;;;2.85;;
62030;SDS011;62035;52.094;5.112;2023-05-01T05:57:30;9.57;;;2.90;;
62030;SDS011;62035;52.094;5.112;2023-05-01T06:00:00;6.70;;;2.80;;
62030;SDS011;62035;52.094;5.112;2023-05-01T06:02:31;6.53;;;3.15;;
62030;SDS011;62035;52.094;5.112;2023-05-01T06:04:59;5.70;;;3.65;;
62030;SDS011;62035;52.094;5.112;2023-05-01T06:07:27;7.18;;;2.90;;
62030;SDS011;62035;52.094;5.112;2023-05-01T06:09:55;6.85;;;3.45;;
62030;SDS011;62035;52.094;5.112;2023-05-01T06:12:26;9.93;;;2.90;;
62030;SDS011;62035;52.094;5.112;2023-05-01T06:14:54;10.40;;;3.33;;
62030;SDS011;62035;52.094;5.112;2023-05-01T06:17:22;7.10;;;3.15;;
62030;SDS011;62035;52.094;5.112;2023-05-01T06:19:52;11.18;;;3.10;;
62030;SDS011;62035;52.094;5.112;2023-05-01T06:22:20;6.30;;;3.22;;
62030;SDS011;62035;52.094;5.112;2023-05-01T06:24:48;8.02;;;3.03;;
62030;SDS011;62035;52.094;5.112;2023-05-01T06:27:15;8.75;;;3.17;;
62030;SDS011;62035;52.094;5.112;2023-05-01T06:29:43;7.43;;;3.17;;
62030;SDS011;62035;52.094;5.112;2023-05-01T06:32:10;5.75;;;2.88;;
62030;SDS011;62035;52.094;5.112;2023-05-01T06:34:38;8.02;;;2.85;;
62030;SDS011;62035;52.094;5.112;2023-05-01T06:37:07;12.13;;;3.78;;
62030;SDS011;62035;52.094;5.112;2023-05-01T06:39:34;7.25;;;3.30;;
62030;SDS011;62035;52.094;5.112;2023-05-01T06:42:02;10.18;;;3.50;;
62030;SDS011;62035;52.094;5.112;2023-05-01T06:44:30;7.95;;;3.33;;
62030;SDS011;62035;52.094;5.112;2023-05-01T06:46:57;11.82;;;3.42;;
62030;SDS011;62035;52.094;5.112;2023-05-01T06:49:26;5.63;;;2.70;;
62030;SDS011;62035;52.094;5.112;2023-05-01T06:51:53;6.70;;;3.10;;
62030;SDS011;62035;52.094;5.112;2023-05-01T06:54:22;8.25;;;3.40;;
62030;SDS011;62035;52.094;5.112;2023-05-01T06:56:51;8.38;;;3.38;;
62030;SDS011;62035;52.094;5.112;2023-05-01T06:59:19;6.93;;;2.80;;
62030;SDS011;62035;52.094;5.112;2023-05-01T07:01:46;9.00;;;3.20;;
62030;SDS011;62035;52.094;5.112;2023-05-01T07:04:14;9.57;;;3.63;;
62030;SDS011;62035;52.094;5.112;2023-05-01T07:06:41;7.88;;;3.20;;
62030;SDS011;62035;52.094;5.112;2023-05-01T07:09:09;6.82;;;2.92;;
62030;SDS011;62035;52.094;5.112;2023-05-01T07:11:40;8.75;;;3.40;;
62030;SDS011;62035;52.094;5.112;2023-05-01T07:14:08;7.10;;;3.60;;
62030;SDS011;62035;52.094;5.112;2023-05-01T07:16:35;10.15;;;3.53;;
62030;SDS011;62035;52.094;5.112;2023-05-01T07:19:03;6.15;;;3.38;;
62030;SDS011;62035;52.094;5.112;2023-05-01T07:21:30;9.25;;;3.40;;
62030;SDS011;62035;52.094;5.112;2023-05-01T07:23:58;7.28;;;3.55;;
62030;SDS011;62035;52.094;5.112;2023-05-01T07:26:26;13.27;;;3.42;;
62030;SDS011;62035;52.094;5.112;2023-05-01T07:28:55;9.65;;;3.13;;
62030;SDS011;62035;52.094;5.112;2023-05-01T07:31:22;5.88;;;3.42;;
62030;SDS011;62035;52.094;5.112;2023-05-01T07:33:50;13.98;;;3.60;;
62030;SDS011;62035;52.094;5.112;2023-05-01T07:36:18;12.88;;;3.58;;
62030;SDS011;62035;52.094;5.112;2023-05-01T07:38:47;7.15;;;3.42;;
62030;SDS011;62035;52.094;5.112;2023-05-01T07:41:14;9.07;;;3.15;;
62030;SDS011;62035;52.094;5.112;2023-05-01T07:43:42;12.63;;;4.00;;
62030;SDS011;62035;52.094;5.112;2023-05-01T07:46:11;7.78;;;3.33;;
62030;SDS011;62035;52.094;5.112;2023-05-01T07:48:38;11.00;;;3.20;;
62030;SDS011;62035;52.094;5.112;2023-05-01T07:51:06;10.13;;;4.10;;
62030;SDS011;62035;52.094;5.112;2023-05-01T07:53:34;8.05;;;3.22;;
62030;SDS011;62035;52.094;5.112;2023-05-01T07:56:04;14.50;;;4.38;;
62030;SDS011;62035;52.094;5.112;2023-05-01T08:01:00;11.80;;;4.55;;
62030;SDS011;62035;52.094;5.112;2023-05-01T08:03:30;10.75;;;4.00;;
62030;SDS011;62035;52.094;5.112;2023-05-01T08:05:57;10.38;;;3.97;;
62030;SDS011;62035;52.094;5.112;2023-05-01T08:08:25;8.90;;;3.80;;
62030;SDS011;62035;52.094;5.112;2023-05-01T08:10:52;12.43;;;3.92;;
62030;SDS011;62035;52.094;5.112;2023-05-01T08:13:21;10.60;;;4.05;;
62030;SDS011;62035;52.094;5.112;2023-05-01T08:15:48;5.70;;;3.50;;
62030;SDS011;62035;52.094;5.112;2023-05-01T08:18:17;17.38;;;5.15;;
62030;SDS011;62035;52.094;5.112;2023-05-01T08:20:46;8.70;;;3.50;;
62030;SDS011;62035;52.094;5.112;2023-05-01T08:23:15;7.32;;;3.63;;
62030;SDS011;62035;52.094;5.112;2023-05-01T08:25:43;11.38;;;4.07;;
62030;SDS011;62035;52.094;5.112;2023-05-01T08:28:11;9.85;;;3.53;;
62030;SDS011;62035;52.094;5.112;2023-05-01T08:30:40;9.02;;;3.80;;
62030;SDS011;62035;52.094;5.112;2023-05-01T08:33:08;8.82;;;3.65;;
62030;SDS011;62035;52.094;5.112;2023-05-01T08:35:36;6.63;;;3.45;;
62030;SDS011;62035;52.094;5.112;2023-05-01T08:38:05;6.03;;;3.20;;
62030;SDS011;62035;52.094;5.112;2023-05-01T08:40:35;7.80;;;3.78;;
62030;SDS011;62035;52.094;5.112;2023-05-01T08:43:03;11.30;;;3.60;;
62030;SDS011;62035;52.094;5.112;2023-05-01T08:45:32;11.25;;;3.70;;
62030;SDS011;62035;52.094;5.112;2023-05-01T08:48:03;10.57;;;3.60;;
62030;SDS011;62035;52.094;5.112;2023-05-01T08:50:32;14.63;;;3.67;;
62030;SDS011;62035;52.094;5.112;2023-05-01T08:53:02;7.68;;;3.92;;
62030;SDS011;62035;52.094;5.112;2023-05-01T08:55:32;10.90;;;4.03;;
62030;SDS011;62035;52.094;5.112;2023-05-01T08:58:03;12.35;;;4.28;;
62030;SDS011;62035;52.094;5.112;2023-05-01T09:00:35;11.20;;;3.92;;
62030;SDS011;62035;52.094;5.112;2023-05-01T09:03:05;10.65;;;4.20;;
62030;SDS011;62035;52.094;5.112;2023-05-01T09:05:37;11.98;;;4.63;;
62030;SDS011;62035;52.094;5.112;2023-05-01T09:08:06;9.73;;;4.13;;
62030;SDS011;62035;52.094;5.112;2023-05-01T09:10:35;13.93;;;4.60;;
62030;SDS011;62035;52.094;5.112;2023-05-01T09:13:11;8.60;;;4.28;;
62030;SDS011;62035;52.094;5.112;2023-05-01T09:15:38;9.38;;;3.58;;
62030;SDS011;62035;52.094;5.112;2023-05-01T09:18:07;15.63;;;3.72;;
62030;SDS011;62035;52.094;5.112;2023-05-01T09:20:35;8.07;;;4.60;;
62030;SDS011;62035;52.094;5.112;2023-05-01T09:23:03;9.85;;;3.95;;
62030;SDS011;62035;52.094;5.112;2023-05-01T09:25:32;13.15;;;4.60;;
62030;SDS011;62035;52.094;5.112;2023-05-01T09:28:02;15.57;;;4.40;;
62030;SDS011;62035;52.094;5.112;2023-05-01T09:30:32;11.00;;;3.97;;
62030;SDS011;62035;52.094;5.112;2023-05-01T09:33:05;7.65;;;3.78;;
62030;SDS011;62035;52.094;5.112;2023-05-01T09:35:47;9.43;;;3.47;;
62030;SDS011;62035;52.094;5.112;2023-05-01T09:38:18;7.78;;;3.50;;
62030;SDS011;62035;52.094;5.112;2023-05-01T09:40:49;9.18;;;3.88;;
62030;SDS011;62035;52.094;5.112;2023-05-01T09:43:24;11.10;;;3.75;;
62030;SDS011;62035;52.094;5.112;2023-05-01T09:46:02;9.18;;;4.07;;
62030;SDS011;62035;52.094;5.112;2023-05-01T09:48:34;11.25;;;3.67;;
62030;SDS011;62035;52.094;5.112;2023-05-01T09:51:18;9.68;;;3.97;;
62030;SDS011;62035;52.094;5.112;2023-05-01T09:53:47;12.00;;;3.60;;
62030;SDS011;62035;52.094;5.112;2023-05-01T09:56:17;10.73;;;4.32;;
62030;SDS011;62035;52.094;5.112;2023-05-01T09:58:46;9.32;;;3.55;;
62030;SDS011;62035;52.094;5.112;2023-05-01T10:01:14;11.05;;;4.03;;
62030;SDS011;62035;52.094;5.112;2023-05-01T10:03:43;9.52;;;3.63;;
62030;SDS011;62035;52.094;5.112;2023-05-01T10:06:24;10.52;;;3.40;;
62030;SDS011;62035;52.094;5.112;2023-05-01T10:08:54;10.40;;;3.70;;
62030;SDS011;62035;52.094;5.112;2023-05-01T10:11:23;18.05;;;4.15;;
62030;SDS011;62035;52.094;5.112;2023-05-01T10:14:04;7.03;;;3.90;;
62030;SDS011;62035;52.094;5.112;2023-05-01T10:16:33;9.05;;;3.45;;
62030;SDS011;62035;52.094;5.112;2023-05-01T10:19:04;8.07;;;3.75;;
62030;SDS011;62035;52.094;5.112;2023-05-01T10:21:32;7.75;;;4.00;;
62030;SDS011;62035;52.094;5.112;2023-05-01T10:24:00;6.07;;;2.90;;
62030;SDS011;62035;52.094;5.112;2023-05-01T10:26:32;7.68;;;3.00;;
62030;SDS011;62035;52.094;5.112;2023-05-01T10:29:00;12.27;;;3.88;;
62030;SDS011;62035;52.094;5.112;2023-05-01T10:31:28;9.70;;;4.25;;
62030;SDS011;62035;52.094;5.112;2023-05-01T10:33:57;11.73;;;4.05;;
62030;SDS011;62035;52.094;5.112;2023-05-01T10:36:29;9.85;;;4.10;;
62030;SDS011;62035;52.094;5.112;2023-05-01T10:39:04;16.38;;;4.15;;
62030;SDS011;62035;52.094;5.112;2023-05-01T10:44:30;6.55;;;4.15;;
62030;SDS011;62035;52.094;5.112;2023-05-01T10:46:59;8.35;;;4.10;;
62030;SDS011;62035;52.094;5.112;2023-05-01T10:50:13;9.90;;;4.13;;
62030;SDS011;62035;52.094;5.112;2023-05-01T10:55:45;6.97;;;3.75;;
62030;SDS011;62035;52.094;5.112;2023-05-01T11:01:26;12.90;;;4.07;;
62030;SDS011;62035;52.094;5.112;2023-05-01T11:03:56;12.45;;;3.90;;
62030;SDS011;62035;52.094;5.112;2023-05-01T11:06:25;11.68;;;4.88;;
62030;SDS011;62035;52.094;5.112;2023-05-01T11:08:53;13.55;;;4.82;;
62030;SDS011;62035;52.094;5.112;2023-05-01T11:14:18;13.95;;;4.93;;
62030;SDS011;62035;52.094;5.112;2023-05-01T11:16:45;10.15;;;4.40;;
62030;SDS011;62035;52.094;5.112;2023-05-01T11:22:15;9.82;;;4.63;;
62030;SDS011;62035;52.094;5.112;2023-05-01T11:24:44;15.98;;;5.38;;
62030;SDS011;62035;52.094;5.112;2023-05-01T11:27:13;7.65;;;4.25;;
62030;SDS011;62035;52.094;5.112;2023-05-01T11:29:44;16.23;;;5.15;;
62030;SDS011;62035;52.094;5.112;2023-05-01T11:32:14;16.95;;;5.68;;
62030;SDS011;62035;52.094;5.112;2023-05-01T11:34:45;10.68;;;5.10;;
62030;SDS011;62035;52.094;5.112;2023-05-01T11:37:15;10.97;;;5.57;;
62030;SDS011;62035;52.094;5.112;2023-05-01T11:39:47;9.98;;;5.20;;
62030;SDS011;62035;52.094;5.112;2023-05-01T11:42:18;14.93;;;6.30;;
62030;SDS011;62035;52.094;5.112;2023-05-01T11:45:08;14.00;;;5.68;;
62030;SDS011;62035;52.094;5.112;2023-05-01T11:47:37;10.85;;;5.53;;
62030;SDS011;62035;52.094;5.112;2023-05-01T11:50:06;7.72;;;4.70;;
62030;SDS011;62035;52.094;5.112;2023-05-01T11:52:42;10.07;;;5.00;;
62030;SDS011;62035;52.094;5.112;2023-05-01T11:55:13;12.35;;;5.20;;
62030;SDS011;62035;52.094;5.112;2023-05-01T11:57:43;9.57;;;4.40;;
62030;SDS011;62035;52.094;5.112;2023-05-01T12:00:24;12.35;;;5.10;;
62030;SDS011;62035;52.094;5.112;2023-05-01T12:02:55;14.25;;;4.40;;
62030;SDS011;62035;52.094;5.112;2023-05-01T12:05:25;12.35;;;4.35;;
62030;SDS011;62035;52.094;5.112;2023-05-01T12:08:10;9.52;;;4.22;;
62030;SDS011;62035;52.094;5.112;2023-05-01T12:10:41;10.55;;;5.00;;
62030;SDS011;62035;52.094;5.112;2023-05-01T12:13:10;18.00;;;5.18;;
62030;SDS011;62035;52.094;5.112;2023-05-01T12:15:41;12.45;;;5.03;;
62030;SDS011;62035;52.094;5.112;2023-05-01T12:18:12;13.77;;;5.22;;
62030;SDS011;62035;52.094;5.112;2023-05-01T12:20:42;12.02;;;5.05;;
62030;SDS011;62035;52.094;5.112;2023-05-01T12:23:12;14.23;;;5.28;;
62030;SDS011;62035;52.094;5.112;2023-05-01T12:25:42;10.27;;;5.43;;
62030;SDS011;62035;52.094;5.112;2023-05-01T12:28:12;11.13;;;5.68;;
62030;SDS011;62035;52.094;5.112;2023-05-01T12:30:43;13.95;;;5.47;;
62030;SDS011;62035;52.094;5.112;2023-05-01T12:33:12;12.65;;;5.55;;
62030;SDS011;62035;52.094;5.112;2023-05-01T12:35:42;13.00;;;5.55;;
62030;SDS011;62035;52.094;5.112;2023-05-01T12:38:12;11.20;;;5.22;;
62030;SDS011;62035;52.094;5.112;2023-05-01T12:40:49;12.57;;;4.95;;
62030;SDS011;62035;52.094;5.112;2023-05-01T12:43:19;14.93;;;4.93;;
62030;SDS011;62035;52.094;5.112;2023-05-01T12:45:52;11.40;;;5.40;;
62030;SDS011;62035;52.094;5.112;2023-05-01T12:50:48;16.08;;;5.60;;
62030;SDS011;62035;52.094;5.112;2023-05-01T12:53:19;10.85;;;4.97;;
62030;SDS011;62035;52.094;5.112;2023-05-01T12:55:48;7.55;;;4.40;;
62030;SDS011;62035;52.094;5.112;2023-05-01T12:58:18;10.70;;;5.15;;
62030;SDS011;62035;52.094;5.112;2023-05-01T13:00:46;11.65;;;4.63;;
62030;SDS011;62035;52.094;5.112;2023-05-01T13:03:21;11.48;;;4.90;;
62030;SDS011;62035;52.094;5.112;2023-05-01T13:05:52;9.77;;;4.50;;
62030;SDS011;62035;52.094;5.112;2023-05-01T13:08:24;10.45;;;4.93;;
62030;SDS011;62035;52.094;5.112;2023-05-01T13:10:54;15.30;;;5.57;;
62030;SDS011;62035;52.094;5.112;2023-05-01T13:13:23;7.85;;;4.40;;
62030;SDS011;62035;52.094;5.112;2023-05-01T13:16:03;17.98;;;6.35;;
62030;SDS011;62035;52.094;5.112;2023-05-01T13:18:38;12.45;;;5.03;;
62030;SDS011;62035;52.094;5.112;2023-05-01T13:21:10;13.75;;;5.35;;
62030;SDS011;62035;52.094;5.112;2023-05-01T13:23:41;9.13;;;5.47;;
62030;SDS011;62035;52.094;5.112;2023-05-01T13:26:17;11.10;;;4.88;;
62030;SDS011;62035;52.094;5.112;2023-05-01T13:28:53;14.30;;;5.07;;
62030;SDS011;62035;52.094;5.112;2023-05-01T13:31:23;13.73;;;4.80;;
62030;SDS011;62035;52.094;5.112;2023-05-01T13:33:52;9.85;;;4.68;;
62030;SDS011;62035;52.094;5.112;2023-05-01T13:36:23;10.45;;;4.90;;
62030;SDS011;62035;52.094;5.112;2023-05-01T13:38:52;11.90;;;4.68;;
62030;SDS011;62035;52.094;5.112;2023-05-01T13:41:22;11.75;;;4.93;;
62030;SDS011;62035;52.094;5.112;2023-05-01T13:43:52;12.73;;;4.70;;
62030;SDS011;62035;52.094;5.112;2023-05-01T13:46:22;11.20;;;5.10;;
62030;SDS011;62035;52.094;5.112;2023-05-01T13:48:53;10.32;;;5.00;;
62030;SDS011;62035;52.094;5.112;2023-05-01T13:51:21;15.70;;;5.25;;
62030;SDS011;62035;52.094;5.112;2023-05-01T13:53:51;14.77;;;4.60;;
62030;SDS011;62035;52.094;5.112;2023-05-01T13:56:19;16.98;;;4.93;;
62030;SDS011;62035;52.094;5.112;2023-05-01T13:58:47;9.35;;;4.65;;
62030;SDS011;62035;52.094;5.112;2023-05-01T14:01:15;13.70;;;4.47;;
62030;SDS011;62035;52.094;5.112;2023-05-01T14:03:46;9.82;;;4.93;;
62030;SDS011;62035;52.094;5.112;2023-05-01T14:06:16;9.73;;;4.80;;
62030;SDS011;62035;52.094;5.112;2023-05-01T14:08:45;10.43;;;4.40;;
62030;SDS011;62035;52.094;5.112;2023-05-01T14:11:14;8.40;;;3.92;;
62030;SDS011;62035;52.094;5.112;2023-05-01T14:13:43;9.60;;;4.68;;
62030;SDS011;62035;52.094;5.112;2023-05-01T14:18:52;11.00;;;4.72;;
62030;SDS011;62035;52.094;5.112;2023-05-01T14:21:23;9.48;;;4.90;;
62030;SDS011;62035;52.094;5.112;2023-05-01T14:23:53;9.32;;;4.30;;
62030;SDS011;62035;52.094;5.112;2023-05-01T14:26:22;10.88;;;4.85;;
62030;SDS011;62035;52.094;5.112;2023-05-01T14:28:50;8.50;;;4.63;;
62030;SDS011;62035;52.094;5.112;2023-05-01T14:31:23;11.45;;;4.85;;
62030;SDS011;62035;52.094;5.112;2023-05-01T14:33:53;10.75;;;4.75;;
62030;SDS011;62035;52.094;5.112;2023-05-01T14:36:25;9.95;;;4.45;;
62030;SDS011;62035;52.094;5.112;2023-05-01T14:38:55;7.25;;;3.97;;
62030;SDS011;62035;52.094;5.112;2023-05-01T14:41:24;6.20;;;3.90;;
62030;SDS011;62035;52.094;5.112;2023-05-01T14:43:51;9.15;;;4.65;;
62030;SDS011;62035;52.094;5.112;2023-05-01T14:46:24;8.23;;;4.70;;
62030;SDS011;62035;52.094;5.112;2023-05-01T14:48:56;8.23;;;4.93;;
62030;SDS011;62035;52.094;5.112;2023-05-01T14:51:25;12.02;;;4.50;;
62030;SDS011;62035;52.094;5.112;2023-05-01T14:53:56;7.93;;;4.40;;
62030;SDS011;62035;52.094;5.112;2023-05-01T14:56:24;8.82;;;4.32;;
62030;SDS011;62035;52.094;5.112;2023-05-01T14:58:52;9.32;;;5.15;;
62030;SDS011;62035;52.094;5.112;2023-05-01T15:01:19;11.98;;;5.18;;
62030;SDS011;62035;52.094;5.112;2023-05-01T15:03:47;10.32;;;5.18;;
62030;SDS011;62035;52.094;5.112;2023-05-01T15:06:15;6.75;;;4.47;;
62030;SDS011;62035;52.094;5.112;2023-05-01T15:08:44;6.93;;;3.85;;
62030;SDS011;62035;52.094;5.112;2023-05-01T15:11:11;7.78;;;2.97;;
62030;SDS011;62035;52.094;5.112;2023-05-01T15:13:39;6.57;;;3.55;;
62030;SDS011;62035;52.094;5.112;2023-05-01T15:16:09;5.40;;;3.60;;
62030;SDS011;62035;52.094;5.112;2023-05-01T15:18:36;5.55;;;3.00;;
62030;SDS011;62035;52.094;5.112;2023-05-01T15:21:04;7.00;;;3.40;;
62030;SDS011;62035;52.094;5.112;2023-05-01T15:23:32;5.63;;;3.70;;
62030;SDS011;62035;52.094;5.112;2023-05-01T15:26:03;5.82;;;3.60;;
62030;SDS011;62035;52.094;5.112;2023-05-01T15:28:30;9.65;;;3.63;;